sensor_id;sensor_type;location;lat;lon;timestamp;temperature;humidity
71291;DHT22;59073;51.994;4.448;2022-07-18T00:01:28;19.80;72.31
71291;DHT22;59073;51.994;4.448;2022-07-18T00:03:54;19.77;72.70
71291;DHT22;59073;51.994;4.448;2022-07-18T00:06:19;19.85;71.74
71291;DHT22;59073;51.994;4.448;2022-07-18T00:08:45;19.94;71.32
71291;DHT22;59073;51.994;4.448;2022-07-18T00:11:13;20.01;71.00
71291;DHT22;59073;51.994;4.448;2022-07-18T00:13:39;19.95;71.16
71291;DHT22;59073;51.994;4.448;2022-07-18T00:16:04;19.97;69.94
71291;DHT22;59073;51.994;4.448;2022-07-18T00:18:30;20.04;69.46
71291;DHT22;59073;51.994;4.448;2022-07-18T00:20:56;20.08;70.21
71291;DHT22;59073;51.994;4.448;2022-07-18T00:23:22;20.08;69.26
71291;DHT22;59073;51.994;4.448;2022-07-18T00:25:47;20.12;68.24
71291;DHT22;59073;51.994;4.448;2022-07-18T00:28:13;20.21;68.29
71291;DHT22;59073;51.994;4.448;2022-07-18T00:30:39;20.20;67.41
71291;DHT22;59073;51.994;4.448;2022-07-18T00:33:05;20.15;67.20
71291;DHT22;59073;51.994;4.448;2022-07-18T00:35:30;20.08;66.83
71291;DHT22;59073;51.994;4.448;2022-07-18T00:37:56;19.85;67.88
71291;DHT22;59073;51.994;4.448;2022-07-18T00:40:22;19.83;68.52
71291;DHT22;59073;51.994;4.448;2022-07-18T00:42:48;19.80;68.03
71291;DHT22;59073;51.994;4.448;2022-07-18T00:45:14;19.67;67.55
71291;DHT22;59073;51.994;4.448;2022-07-18T00:47:40;19.67;68.35
71291;DHT22;59073;51.994;4.448;2022-07-18T00:50:07;19.84;66.22
71291;DHT22;59073;51.994;4.448;2022-07-18T00:52:34;20.07;64.43
71291;DHT22;59073;51.994;4.448;2022-07-18T00:55:00;20.17;64.54
71291;DHT22;59073;51.994;4.448;2022-07-18T00:57:27;20.22;64.42
71291;DHT22;59073;51.994;4.448;2022-07-18T00:59:54;20.26;64.17
71291;DHT22;59073;51.994;4.448;2022-07-18T01:02:38;20.36;64.69
71291;DHT22;59073;51.994;4.448;2022-07-18T01:05:06;20.22;65.06
71291;DHT22;59073;51.994;4.448;2022-07-18T01:07:33;19.94;69.26
71291;DHT22;59073;51.994;4.448;2022-07-18T01:09:59;19.77;69.92
71291;DHT22;59073;51.994;4.448;2022-07-18T01:12:26;19.43;71.58
71291;DHT22;59073;51.994;4.448;2022-07-18T01:14:51;19.19;73.95
71291;DHT22;59073;51.994;4.448;2022-07-18T01:17:19;19.01;74.87
71291;DHT22;59073;51.994;4.448;2022-07-18T01:19:46;19.05;71.87
71291;DHT22;59073;51.994;4.448;2022-07-18T01:22:14;19.22;71.92
71291;DHT22;59073;51.994;4.448;2022-07-18T01:24:41;19.43;68.16
71291;DHT22;59073;51.994;4.448;2022-07-18T01:27:06;19.67;66.00
71291;DHT22;59073;51.994;4.448;2022-07-18T01:29:32;19.84;64.85
71291;DHT22;59073;51.994;4.448;2022-07-18T01:32:06;19.80;65.36
71291;DHT22;59073;51.994;4.448;2022-07-18T01:34:32;19.74;65.69
71291;DHT22;59073;51.994;4.448;2022-07-18T01:36:59;19.61;67.01
71291;DHT22;59073;51.994;4.448;2022-07-18T01:39:25;19.52;68.47
71291;DHT22;59073;51.994;4.448;2022-07-18T01:41:58;19.60;68.02
71291;DHT22;59073;51.994;4.448;2022-07-18T01:44:25;19.71;65.95
71291;DHT22;59073;51.994;4.448;2022-07-18T01:46:51;19.87;64.81
71291;DHT22;59073;51.994;4.448;2022-07-18T01:49:17;19.98;64.82
71291;DHT22;59073;51.994;4.448;2022-07-18T01:51:52;19.97;64.28
71291;DHT22;59073;51.994;4.448;2022-07-18T01:54:22;20.05;64.14
71291;DHT22;59073;51.994;4.448;2022-07-18T01:56:48;20.08;64.24
71291;DHT22;59073;51.994;4.448;2022-07-18T01:59:13;20.11;64.31
71291;DHT22;59073;51.994;4.448;2022-07-18T02:01:42;20.08;63.49
71291;DHT22;59073;51.994;4.448;2022-07-18T02:04:08;20.15;63.16
71291;DHT22;59073;51.994;4.448;2022-07-18T02:06:34;19.97;64.53
71291;DHT22;59073;51.994;4.448;2022-07-18T02:09:03;19.57;69.06
71291;DHT22;59073;51.994;4.448;2022-07-18T02:11:29;19.52;71.08
71291;DHT22;59073;51.994;4.448;2022-07-18T02:13:54;19.29;72.73
71291;DHT22;59073;51.994;4.448;2022-07-18T02:16:20;19.06;73.02
71291;DHT22;59073;51.994;4.448;2022-07-18T02:18:45;19.11;72.31
71291;DHT22;59073;51.994;4.448;2022-07-18T02:21:11;19.02;73.13
71291;DHT22;59073;51.994;4.448;2022-07-18T02:23:39;19.03;72.22
71291;DHT22;59073;51.994;4.448;2022-07-18T02:26:05;19.16;71.58
71291;DHT22;59073;51.994;4.448;2022-07-18T02:28:31;19.19;69.41
71291;DHT22;59073;51.994;4.448;2022-07-18T02:30:57;19.06;67.57
71291;DHT22;59073;51.994;4.448;2022-07-18T02:33:22;19.05;67.48
71291;DHT22;59073;51.994;4.448;2022-07-18T02:35:48;19.08;67.05
71291;DHT22;59073;51.994;4.448;2022-07-18T02:38:13;18.95;67.69
71291;DHT22;59073;51.994;4.448;2022-07-18T02:40:39;19.09;66.36
71291;DHT22;59073;51.994;4.448;2022-07-18T02:43:05;19.22;66.18
71291;DHT22;59073;51.994;4.448;2022-07-18T02:45:31;19.36;65.77
71291;DHT22;59073;51.994;4.448;2022-07-18T02:47:56;19.39;66.12
71291;DHT22;59073;51.994;4.448;2022-07-18T02:50:22;19.43;66.66
71291;DHT22;59073;51.994;4.448;2022-07-18T02:52:47;19.34;66.72
71291;DHT22;59073;51.994;4.448;2022-07-18T02:55:13;19.29;67.40
71291;DHT22;59073;51.994;4.448;2022-07-18T02:57:40;19.27;67.59
71291;DHT22;59073;51.994;4.448;2022-07-18T03:00:09;19.30;67.05
71291;DHT22;59073;51.994;4.448;2022-07-18T03:02:35;19.36;66.74
71291;DHT22;59073;51.994;4.448;2022-07-18T03:05:03;19.36;66.37
71291;DHT22;59073;51.994;4.448;2022-07-18T03:07:29;19.36;66.49
71291;DHT22;59073;51.994;4.448;2022-07-18T03:09:55;19.32;66.65
71291;DHT22;59073;51.994;4.448;2022-07-18T03:12:20;19.27;66.67
71291;DHT22;59073;51.994;4.448;2022-07-18T03:14:46;19.26;67.26
71291;DHT22;59073;51.994;4.448;2022-07-18T03:17:12;19.24;68.02
71291;DHT22;59073;51.994;4.448;2022-07-18T03:19:37;19.22;67.56
71291;DHT22;59073;51.994;4.448;2022-07-18T03:22:04;19.13;67.46
71291;DHT22;59073;51.994;4.448;2022-07-18T03:24:30;19.05;68.14
71291;DHT22;59073;51.994;4.448;2022-07-18T03:26:56;18.95;68.72
71291;DHT22;59073;51.994;4.448;2022-07-18T03:29:22;19.02;67.49
71291;DHT22;59073;51.994;4.448;2022-07-18T03:31:48;19.11;66.47
71291;DHT22;59073;51.994;4.448;2022-07-18T03:34:13;18.98;67.25
71291;DHT22;59073;51.994;4.448;2022-07-18T03:36:40;18.82;69.80
71291;DHT22;59073;51.994;4.448;2022-07-18T03:39:06;18.76;71.30
71291;DHT22;59073;51.994;4.448;2022-07-18T03:41:32;18.72;72.45
71291;DHT22;59073;51.994;4.448;2022-07-18T03:43:58;18.44;74.28
71291;DHT22;59073;51.994;4.448;2022-07-18T03:46:24;18.21;75.05
71291;DHT22;59073;51.994;4.448;2022-07-18T03:48:49;18.31;72.20
71291;DHT22;59073;51.994;4.448;2022-07-18T03:51:17;18.52;69.56
71291;DHT22;59073;51.994;4.448;2022-07-18T03:53:43;18.64;67.97
71291;DHT22;59073;51.994;4.448;2022-07-18T03:56:08;18.74;67.71
71291;DHT22;59073;51.994;4.448;2022-07-18T03:58:34;18.51;69.90
71291;DHT22;59073;51.994;4.448;2022-07-18T04:01:00;18.23;70.32
71291;DHT22;59073;51.994;4.448;2022-07-18T04:03:25;18.13;70.52
71291;DHT22;59073;51.994;4.448;2022-07-18T04:05:51;18.12;69.00
71291;DHT22;59073;51.994;4.448;2022-07-18T04:08:16;18.12;68.30
71291;DHT22;59073;51.994;4.448;2022-07-18T04:10:42;18.24;66.66
71291;DHT22;59073;51.994;4.448;2022-07-18T04:13:09;18.41;66.20
71291;DHT22;59073;51.994;4.448;2022-07-18T04:15:35;18.64;64.48
71291;DHT22;59073;51.994;4.448;2022-07-18T04:18:02;18.96;63.84
71291;DHT22;59073;51.994;4.448;2022-07-18T04:20:28;19.27;62.40
71291;DHT22;59073;51.994;4.448;2022-07-18T04:22:57;19.80;60.93
71291;DHT22;59073;51.994;4.448;2022-07-18T04:25:25;20.20;59.34
71291;DHT22;59073;51.994;4.448;2022-07-18T04:27:53;20.28;58.96
71291;DHT22;59073;51.994;4.448;2022-07-18T04:30:21;20.36;59.03
71291;DHT22;59073;51.994;4.448;2022-07-18T04:32:47;20.48;58.47
71291;DHT22;59073;51.994;4.448;2022-07-18T04:35:13;20.83;58.05
71291;DHT22;59073;51.994;4.448;2022-07-18T04:37:39;20.73;58.47
71291;DHT22;59073;51.994;4.448;2022-07-18T04:40:09;20.87;57.96
71291;DHT22;59073;51.994;4.448;2022-07-18T04:42:35;21.07;57.69
71291;DHT22;59073;51.994;4.448;2022-07-18T04:45:01;21.37;56.92
71291;DHT22;59073;51.994;4.448;2022-07-18T04:47:28;21.59;54.65
71291;DHT22;59073;51.994;4.448;2022-07-18T04:49:54;21.89;54.91
71291;DHT22;59073;51.994;4.448;2022-07-18T04:52:20;22.22;54.84
71291;DHT22;59073;51.994;4.448;2022-07-18T04:54:45;21.72;56.95
71291;DHT22;59073;51.994;4.448;2022-07-18T04:57:11;21.19;57.67
71291;DHT22;59073;51.994;4.448;2022-07-18T04:59:43;21.13;57.51
71291;DHT22;59073;51.994;4.448;2022-07-18T05:02:10;21.65;55.57
71291;DHT22;59073;51.994;4.448;2022-07-18T05:04:37;22.28;53.10
71291;DHT22;59073;51.994;4.448;2022-07-18T05:07:03;23.04;52.40
71291;DHT22;59073;51.994;4.448;2022-07-18T05:09:29;23.11;50.50
71291;DHT22;59073;51.994;4.448;2022-07-18T05:11:55;23.35;50.55
71291;DHT22;59073;51.994;4.448;2022-07-18T05:14:21;23.46;51.08
71291;DHT22;59073;51.994;4.448;2022-07-18T05:16:47;23.73;50.47
71291;DHT22;59073;51.994;4.448;2022-07-18T05:19:13;24.07;49.94
71291;DHT22;59073;51.994;4.448;2022-07-18T05:21:41;24.31;49.51
71291;DHT22;59073;51.994;4.448;2022-07-18T05:24:06;24.45;48.74
71291;DHT22;59073;51.994;4.448;2022-07-18T05:26:33;24.91;47.92
71291;DHT22;59073;51.994;4.448;2022-07-18T05:28:59;24.96;47.03
71291;DHT22;59073;51.994;4.448;2022-07-18T05:31:24;25.23;47.21
71291;DHT22;59073;51.994;4.448;2022-07-18T05:33:50;25.54;47.55
71291;DHT22;59073;51.994;4.448;2022-07-18T05:36:15;25.13;46.88
71291;DHT22;59073;51.994;4.448;2022-07-18T05:38:41;25.09;47.17
71291;DHT22;59073;51.994;4.448;2022-07-18T05:41:07;25.54;45.84
71291;DHT22;59073;51.994;4.448;2022-07-18T05:43:32;25.74;45.98
71291;DHT22;59073;51.994;4.448;2022-07-18T05:45:58;25.91;45.61
71291;DHT22;59073;51.994;4.448;2022-07-18T05:48:23;26.11;44.79
71291;DHT22;59073;51.994;4.448;2022-07-18T05:50:52;26.31;43.61
71291;DHT22;59073;51.994;4.448;2022-07-18T05:53:17;26.57;44.05
71291;DHT22;59073;51.994;4.448;2022-07-18T05:55:43;26.82;43.36
71291;DHT22;59073;51.994;4.448;2022-07-18T05:58:08;26.91;43.23
71291;DHT22;59073;51.994;4.448;2022-07-18T06:00:34;27.07;42.98
71291;DHT22;59073;51.994;4.448;2022-07-18T06:03:00;27.54;41.35
71291;DHT22;59073;51.994;4.448;2022-07-18T06:05:26;28.05;40.94
71291;DHT22;59073;51.994;4.448;2022-07-18T06:07:53;28.75;40.11
71291;DHT22;59073;51.994;4.448;2022-07-18T06:10:19;28.84;39.14
71291;DHT22;59073;51.994;4.448;2022-07-18T06:12:45;29.23;39.33
71291;DHT22;59073;51.994;4.448;2022-07-18T06:15:11;29.53;37.64
71291;DHT22;59073;51.994;4.448;2022-07-18T06:17:36;29.65;37.23
71291;DHT22;59073;51.994;4.448;2022-07-18T06:20:03;30.20;37.45
71291;DHT22;59073;51.994;4.448;2022-07-18T06:22:30;30.35;36.06
71291;DHT22;59073;51.994;4.448;2022-07-18T06:24:56;29.80;37.39
71291;DHT22;59073;51.994;4.448;2022-07-18T06:27:21;29.89;37.17
71291;DHT22;59073;51.994;4.448;2022-07-18T06:29:47;30.16;36.96
71291;DHT22;59073;51.994;4.448;2022-07-18T06:32:12;30.65;35.49
71291;DHT22;59073;51.994;4.448;2022-07-18T06:34:38;31.04;34.97
71291;DHT22;59073;51.994;4.448;2022-07-18T06:37:03;31.36;34.33
71291;DHT22;59073;51.994;4.448;2022-07-18T06:39:29;31.50;33.68
71291;DHT22;59073;51.994;4.448;2022-07-18T06:41:54;31.74;35.27
71291;DHT22;59073;51.994;4.448;2022-07-18T06:44:20;31.67;34.42
71291;DHT22;59073;51.994;4.448;2022-07-18T06:46:45;31.33;34.12
71291;DHT22;59073;51.994;4.448;2022-07-18T06:49:11;31.06;33.22
71291;DHT22;59073;51.994;4.448;2022-07-18T06:51:36;31.03;33.67
71291;DHT22;59073;51.994;4.448;2022-07-18T06:54:01;30.75;33.72
71291;DHT22;59073;51.994;4.448;2022-07-18T06:56:27;30.71;33.37
71291;DHT22;59073;51.994;4.448;2022-07-18T06:58:53;30.49;33.93
71291;DHT22;59073;51.994;4.448;2022-07-18T07:01:20;30.40;35.03
71291;DHT22;59073;51.994;4.448;2022-07-18T07:03:46;30.06;36.14
71291;DHT22;59073;51.994;4.448;2022-07-18T07:06:12;29.77;35.41
71291;DHT22;59073;51.994;4.448;2022-07-18T07:08:38;29.53;35.69
71291;DHT22;59073;51.994;4.448;2022-07-18T07:11:03;29.35;37.20
71291;DHT22;59073;51.994;4.448;2022-07-18T07:13:29;29.18;36.62
71291;DHT22;59073;51.994;4.448;2022-07-18T07:15:54;29.05;37.57
71291;DHT22;59073;51.994;4.448;2022-07-18T07:18:20;29.07;37.15
71291;DHT22;59073;51.994;4.448;2022-07-18T07:20:46;29.08;37.72
71291;DHT22;59073;51.994;4.448;2022-07-18T07:23:12;29.01;35.96
71291;DHT22;59073;51.994;4.448;2022-07-18T07:25:38;29.00;35.68
71291;DHT22;59073;51.994;4.448;2022-07-18T07:28:05;28.95;37.86
71291;DHT22;59073;51.994;4.448;2022-07-18T07:30:32;29.01;36.10
71291;DHT22;59073;51.994;4.448;2022-07-18T07:32:58;28.84;36.16
71291;DHT22;59073;51.994;4.448;2022-07-18T07:35:24;28.88;36.29
71291;DHT22;59073;51.994;4.448;2022-07-18T07:37:54;29.05;37.13
71291;DHT22;59073;51.994;4.448;2022-07-18T07:40:22;29.38;36.43
71291;DHT22;59073;51.994;4.448;2022-07-18T07:42:48;29.53;34.84
71291;DHT22;59073;51.994;4.448;2022-07-18T07:45:14;29.33;34.66
71291;DHT22;59073;51.994;4.448;2022-07-18T07:47:40;29.28;36.36
71291;DHT22;59073;51.994;4.448;2022-07-18T07:50:07;29.33;34.24
71291;DHT22;59073;51.994;4.448;2022-07-18T07:52:34;29.38;35.36
71291;DHT22;59073;51.994;4.448;2022-07-18T07:55:00;29.52;35.01
71291;DHT22;59073;51.994;4.448;2022-07-18T07:57:25;29.56;35.00
71291;DHT22;59073;51.994;4.448;2022-07-18T07:59:51;29.76;35.07
71291;DHT22;59073;51.994;4.448;2022-07-18T08:02:17;29.96;34.25
71291;DHT22;59073;51.994;4.448;2022-07-18T08:04:44;30.31;34.72
71291;DHT22;59073;51.994;4.448;2022-07-18T08:07:10;30.85;35.87
71291;DHT22;59073;51.994;4.448;2022-07-18T08:09:36;30.76;33.84
71291;DHT22;59073;51.994;4.448;2022-07-18T08:12:02;30.92;34.43
71291;DHT22;59073;51.994;4.448;2022-07-18T08:14:28;31.15;35.63
71291;DHT22;59073;51.994;4.448;2022-07-18T08:16:53;31.03;33.96
71291;DHT22;59073;51.994;4.448;2022-07-18T08:19:19;31.43;33.48
71291;DHT22;59073;51.994;4.448;2022-07-18T08:21:44;31.71;34.76
71291;DHT22;59073;51.994;4.448;2022-07-18T08:24:10;31.95;35.13
71291;DHT22;59073;51.994;4.448;2022-07-18T08:26:35;32.01;33.19
71291;DHT22;59073;51.994;4.448;2022-07-18T08:29:05;32.14;33.90
71291;DHT22;59073;51.994;4.448;2022-07-18T08:31:31;32.21;33.11
71291;DHT22;59073;51.994;4.448;2022-07-18T08:33:57;32.35;33.25
71291;DHT22;59073;51.994;4.448;2022-07-18T08:36:22;32.35;34.48
71291;DHT22;59073;51.994;4.448;2022-07-18T08:38:48;32.25;32.04
71291;DHT22;59073;51.994;4.448;2022-07-18T08:41:17;32.14;32.49
71291;DHT22;59073;51.994;4.448;2022-07-18T08:43:45;32.04;32.65
71291;DHT22;59073;51.994;4.448;2022-07-18T08:46:11;31.88;30.90
71291;DHT22;59073;51.994;4.448;2022-07-18T08:48:39;31.91;33.37
71291;DHT22;59073;51.994;4.448;2022-07-18T08:51:08;31.74;33.11
71291;DHT22;59073;51.994;4.448;2022-07-18T08:53:35;32.22;35.50
71291;DHT22;59073;51.994;4.448;2022-07-18T08:56:04;32.76;33.81
71291;DHT22;59073;51.994;4.448;2022-07-18T08:58:29;33.02;30.45
71291;DHT22;59073;51.994;4.448;2022-07-18T09:00:55;33.13;32.76
71291;DHT22;59073;51.994;4.448;2022-07-18T09:03:23;32.97;32.19
71291;DHT22;59073;51.994;4.448;2022-07-18T09:08:28;32.82;34.00
71291;DHT22;59073;51.994;4.448;2022-07-18T09:10:58;32.63;33.45
71291;DHT22;59073;51.994;4.448;2022-07-18T09:13:35;33.03;33.04
71291;DHT22;59073;51.994;4.448;2022-07-18T09:16:04;33.17;30.80
71291;DHT22;59073;51.994;4.448;2022-07-18T09:18:32;33.27;29.34
71291;DHT22;59073;51.994;4.448;2022-07-18T09:21:03;32.15;30.98
71291;DHT22;59073;51.994;4.448;2022-07-18T09:23:31;32.68;32.95
71291;DHT22;59073;51.994;4.448;2022-07-18T09:25:58;33.09;30.74
71291;DHT22;59073;51.994;4.448;2022-07-18T09:28:29;32.86;29.81
71291;DHT22;59073;51.994;4.448;2022-07-18T09:30:56;32.46;32.85
71291;DHT22;59073;51.994;4.448;2022-07-18T09:33:23;32.72;30.56
71291;DHT22;59073;51.994;4.448;2022-07-18T09:35:51;32.53;31.18
71291;DHT22;59073;51.994;4.448;2022-07-18T09:38:22;31.70;31.93
71291;DHT22;59073;51.994;4.448;2022-07-18T09:40:51;31.39;32.54
71291;DHT22;59073;51.994;4.448;2022-07-18T09:43:19;30.71;32.89
71291;DHT22;59073;51.994;4.448;2022-07-18T09:45:50;31.27;33.09
71291;DHT22;59073;51.994;4.448;2022-07-18T09:48:21;32.08;31.84
71291;DHT22;59073;51.994;4.448;2022-07-18T09:50:55;32.42;30.20
71291;DHT22;59073;51.994;4.448;2022-07-18T09:56:01;32.80;30.69
71291;DHT22;59073;51.994;4.448;2022-07-18T10:01:04;32.79;31.53
71291;DHT22;59073;51.994;4.448;2022-07-18T10:03:32;33.13;29.97
71291;DHT22;59073;51.994;4.448;2022-07-18T10:06:01;32.05;29.84
71291;DHT22;59073;51.994;4.448;2022-07-18T10:08:31;32.12;33.25
71291;DHT22;59073;51.994;4.448;2022-07-18T10:11:00;32.84;31.45
71291;DHT22;59073;51.994;4.448;2022-07-18T10:13:28;31.67;32.48
71291;DHT22;59073;51.994;4.448;2022-07-18T10:15:55;31.33;35.03
71291;DHT22;59073;51.994;4.448;2022-07-18T10:18:23;31.98;34.38
71291;DHT22;59073;51.994;4.448;2022-07-18T10:23:27;31.31;32.14
71291;DHT22;59073;51.994;4.448;2022-07-18T10:31:29;32.99;29.14
71291;DHT22;59073;51.994;4.448;2022-07-18T10:36:31;33.41;29.26
71291;DHT22;59073;51.994;4.448;2022-07-18T10:39:11;32.21;30.77
71291;DHT22;59073;51.994;4.448;2022-07-18T10:44:31;31.88;31.82
71291;DHT22;59073;51.994;4.448;2022-07-18T10:57:28;33.97;31.23
71291;DHT22;59073;51.994;4.448;2022-07-18T11:00:00;33.79;30.96
71291;DHT22;59073;51.994;4.448;2022-07-18T11:23:47;33.21;28.70
71291;DHT22;59073;51.994;4.448;2022-07-18T11:26:22;33.35;27.33
71291;DHT22;59073;51.994;4.448;2022-07-18T11:28:50;33.11;31.67
71291;DHT22;59073;51.994;4.448;2022-07-18T11:31:21;33.79;28.06
71291;DHT22;59073;51.994;4.448;2022-07-18T11:33:49;33.98;30.07
71291;DHT22;59073;51.994;4.448;2022-07-18T11:36:22;33.89;27.25
71291;DHT22;59073;51.994;4.448;2022-07-18T11:38:49;34.35;29.90
71291;DHT22;59073;51.994;4.448;2022-07-18T11:41:16;34.68;30.10
71291;DHT22;59073;51.994;4.448;2022-07-18T11:43:46;34.77;28.34
71291;DHT22;59073;51.994;4.448;2022-07-18T11:46:15;34.91;29.39
71291;DHT22;59073;51.994;4.448;2022-07-18T11:48:43;34.87;26.51
71291;DHT22;59073;51.994;4.448;2022-07-18T11:51:14;33.94;28.26
71291;DHT22;59073;51.994;4.448;2022-07-18T11:53:51;33.41;28.35
71291;DHT22;59073;51.994;4.448;2022-07-18T11:56:19;33.50;29.21
71291;DHT22;59073;51.994;4.448;2022-07-18T11:58:46;33.82;28.30
71291;DHT22;59073;51.994;4.448;2022-07-18T12:01:13;34.29;30.15
71291;DHT22;59073;51.994;4.448;2022-07-18T12:03:42;34.68;28.70
71291;DHT22;59073;51.994;4.448;2022-07-18T12:06:20;34.39;29.17
71291;DHT22;59073;51.994;4.448;2022-07-18T12:08:48;34.67;26.05
71291;DHT22;59073;51.994;4.448;2022-07-18T12:11:25;34.61;26.52
71291;DHT22;59073;51.994;4.448;2022-07-18T12:14:02;34.31;26.44
71291;DHT22;59073;51.994;4.448;2022-07-18T12:16:43;34.28;25.99
71291;DHT22;59073;51.994;4.448;2022-07-18T12:19:17;33.41;29.34
71291;DHT22;59073;51.994;4.448;2022-07-18T12:21:50;33.50;26.15
71291;DHT22;59073;51.994;4.448;2022-07-18T12:26:48;33.72;30.03
71291;DHT22;59073;51.994;4.448;2022-07-18T12:29:14;33.92;26.36
71291;DHT22;59073;51.994;4.448;2022-07-18T12:31:44;34.36;26.84
71291;DHT22;59073;51.994;4.448;2022-07-18T12:34:13;34.66;29.37
71291;DHT22;59073;51.994;4.448;2022-07-18T12:39:35;35.07;27.10
71291;DHT22;59073;51.994;4.448;2022-07-18T12:42:01;35.18;25.86
71291;DHT22;59073;51.994;4.448;2022-07-18T12:44:29;35.18;25.44
71291;DHT22;59073;51.994;4.448;2022-07-18T12:46:55;35.33;26.35
71291;DHT22;59073;51.994;4.448;2022-07-18T12:49:21;35.31;25.13
71291;DHT22;59073;51.994;4.448;2022-07-18T12:51:47;34.70;22.55
71291;DHT22;59073;51.994;4.448;2022-07-18T12:54:15;33.50;25.98
71291;DHT22;59073;51.994;4.448;2022-07-18T12:56:41;33.74;27.28
71291;DHT22;59073;51.994;4.448;2022-07-18T12:59:06;32.93;25.98
71291;DHT22;59073;51.994;4.448;2022-07-18T13:01:32;32.56;25.65
71291;DHT22;59073;51.994;4.448;2022-07-18T13:03:57;32.49;26.75
71291;DHT22;59073;51.994;4.448;2022-07-18T13:06:23;32.70;27.24
71291;DHT22;59073;51.994;4.448;2022-07-18T13:08:51;32.25;27.51
71291;DHT22;59073;51.994;4.448;2022-07-18T13:11:17;32.52;28.62
71291;DHT22;59073;51.994;4.448;2022-07-18T13:13:42;33.06;26.94
71291;DHT22;59073;51.994;4.448;2022-07-18T13:16:08;32.76;26.04
71291;DHT22;59073;51.994;4.448;2022-07-18T13:18:33;33.19;27.00
71291;DHT22;59073;51.994;4.448;2022-07-18T13:20:58;32.76;26.09
71291;DHT22;59073;51.994;4.448;2022-07-18T13:23:24;32.70;28.16
71291;DHT22;59073;51.994;4.448;2022-07-18T13:25:49;33.28;26.34
71291;DHT22;59073;51.994;4.448;2022-07-18T13:28:15;33.34;24.12
71291;DHT22;59073;51.994;4.448;2022-07-18T13:30:41;33.14;25.51
71291;DHT22;59073;51.994;4.448;2022-07-18T13:33:07;33.21;29.10
71291;DHT22;59073;51.994;4.448;2022-07-18T13:35:33;33.67;27.36
71291;DHT22;59073;51.994;4.448;2022-07-18T13:37:59;33.77;27.21
71291;DHT22;59073;51.994;4.448;2022-07-18T13:40:25;33.34;28.39
71291;DHT22;59073;51.994;4.448;2022-07-18T13:42:50;33.34;27.51
71291;DHT22;59073;51.994;4.448;2022-07-18T13:45:15;33.50;25.43
71291;DHT22;59073;51.994;4.448;2022-07-18T13:47:44;33.81;23.61
71291;DHT22;59073;51.994;4.448;2022-07-18T13:50:11;33.77;24.29
71291;DHT22;59073;51.994;4.448;2022-07-18T13:52:37;33.94;25.65
71291;DHT22;59073;51.994;4.448;2022-07-18T13:55:03;34.15;27.90
71291;DHT22;59073;51.994;4.448;2022-07-18T13:57:28;34.36;26.03
71291;DHT22;59073;51.994;4.448;2022-07-18T13:59:55;34.13;26.24
71291;DHT22;59073;51.994;4.448;2022-07-18T14:02:20;33.95;26.41
71291;DHT22;59073;51.994;4.448;2022-07-18T14:04:46;33.46;26.49
71291;DHT22;59073;51.994;4.448;2022-07-18T14:07:12;33.71;31.30
71291;DHT22;59073;51.994;4.448;2022-07-18T14:09:43;34.06;27.80
71291;DHT22;59073;51.994;4.448;2022-07-18T14:12:09;34.18;26.85
71291;DHT22;59073;51.994;4.448;2022-07-18T14:14:34;34.08;28.05
71291;DHT22;59073;51.994;4.448;2022-07-18T14:17:00;33.97;27.42
71291;DHT22;59073;51.994;4.448;2022-07-18T14:19:25;34.26;26.51
71291;DHT22;59073;51.994;4.448;2022-07-18T14:21:50;34.36;28.65
71291;DHT22;59073;51.994;4.448;2022-07-18T14:24:16;34.36;27.84
71291;DHT22;59073;51.994;4.448;2022-07-18T14:26:41;33.69;25.85
71291;DHT22;59073;51.994;4.448;2022-07-18T14:29:07;33.33;28.20
71291;DHT22;59073;51.994;4.448;2022-07-18T14:31:32;33.40;26.98
71291;DHT22;59073;51.994;4.448;2022-07-18T14:33:58;33.40;27.29
71291;DHT22;59073;51.994;4.448;2022-07-18T14:36:23;33.07;29.43
71291;DHT22;59073;51.994;4.448;2022-07-18T14:38:49;32.79;29.47
71291;DHT22;59073;51.994;4.448;2022-07-18T14:41:14;32.97;25.87
71291;DHT22;59073;51.994;4.448;2022-07-18T14:43:40;33.24;27.76
71291;DHT22;59073;51.994;4.448;2022-07-18T14:46:05;33.59;28.55
71291;DHT22;59073;51.994;4.448;2022-07-18T14:48:31;33.89;29.56
71291;DHT22;59073;51.994;4.448;2022-07-18T14:50:57;33.99;26.28
71291;DHT22;59073;51.994;4.448;2022-07-18T14:53:22;34.06;25.78
71291;DHT22;59073;51.994;4.448;2022-07-18T14:55:48;33.89;28.16
71291;DHT22;59073;51.994;4.448;2022-07-18T14:58:13;33.99;27.40
71291;DHT22;59073;51.994;4.448;2022-07-18T15:00:39;34.19;28.13
71291;DHT22;59073;51.994;4.448;2022-07-18T15:03:04;34.31;26.92
71291;DHT22;59073;51.994;4.448;2022-07-18T15:05:30;33.94;26.87
71291;DHT22;59073;51.994;4.448;2022-07-18T15:07:55;33.72;27.87
71291;DHT22;59073;51.994;4.448;2022-07-18T15:10:21;33.85;27.38
71291;DHT22;59073;51.994;4.448;2022-07-18T15:12:46;33.58;27.65
71291;DHT22;59073;51.994;4.448;2022-07-18T15:15:12;33.31;26.20
71291;DHT22;59073;51.994;4.448;2022-07-18T15:17:37;33.34;27.84
71291;DHT22;59073;51.994;4.448;2022-07-18T15:20:04;33.57;27.01
71291;DHT22;59073;51.994;4.448;2022-07-18T15:22:30;33.74;29.27
71291;DHT22;59073;51.994;4.448;2022-07-18T15:24:56;33.82;26.62
71291;DHT22;59073;51.994;4.448;2022-07-18T15:27:21;33.79;28.64
71291;DHT22;59073;51.994;4.448;2022-07-18T15:29:47;33.72;27.70
71291;DHT22;59073;51.994;4.448;2022-07-18T15:32:12;33.58;26.57
71291;DHT22;59073;51.994;4.448;2022-07-18T15:34:39;33.69;27.17
71291;DHT22;59073;51.994;4.448;2022-07-18T15:37:05;33.58;26.95
71291;DHT22;59073;51.994;4.448;2022-07-18T15:39:31;33.33;27.51
71291;DHT22;59073;51.994;4.448;2022-07-18T15:41:57;33.41;27.65
71291;DHT22;59073;51.994;4.448;2022-07-18T15:44:23;33.47;25.91
71291;DHT22;59073;51.994;4.448;2022-07-18T15:46:49;33.59;29.69
71291;DHT22;59073;51.994;4.448;2022-07-18T15:49:14;33.41;29.17
71291;DHT22;59073;51.994;4.448;2022-07-18T15:51:40;33.50;29.19
71291;DHT22;59073;51.994;4.448;2022-07-18T15:54:12;33.54;28.18
71291;DHT22;59073;51.994;4.448;2022-07-18T15:56:38;33.40;27.94
71291;DHT22;59073;51.994;4.448;2022-07-18T15:59:03;33.31;27.42
71291;DHT22;59073;51.994;4.448;2022-07-18T16:01:29;33.11;28.42
71291;DHT22;59073;51.994;4.448;2022-07-18T16:03:54;33.24;29.57
71291;DHT22;59073;51.994;4.448;2022-07-18T16:06:20;33.48;29.19
71291;DHT22;59073;51.994;4.448;2022-07-18T16:08:45;33.44;27.37
71291;DHT22;59073;51.994;4.448;2022-07-18T16:11:11;33.34;28.75
71291;DHT22;59073;51.994;4.448;2022-07-18T16:13:36;33.21;30.78
71291;DHT22;59073;51.994;4.448;2022-07-18T16:16:02;33.30;29.77
71291;DHT22;59073;51.994;4.448;2022-07-18T16:18:28;33.51;30.60
71291;DHT22;59073;51.994;4.448;2022-07-18T16:20:53;33.58;28.04
71291;DHT22;59073;51.994;4.448;2022-07-18T16:23:19;33.61;28.74
71291;DHT22;59073;51.994;4.448;2022-07-18T16:25:44;33.75;29.33